Preview of NWS' New Version of Forecast
This preview is not operational and should not be used for support decisions.

Terminal Aerodrome Forecast (TAF)

Issued by National Weather Service (NWS)

                            
213 
FTUS42 KKEY 191741
TAFMTH
TAF
KMTH 191741Z 1918/2018 11011G20KT P6SM FEW025 SCT070
     FM192300 10012G23KT P6SM VCSH SCT020 OVC050
      TEMPO 2001/2005 5SM -SHRA BKN020 OVC040
     FM201200 12010G18KT P6SM FEW025 SCT045=